sensor_id;sensor_type;location;lat;lon;timestamp;P1;durP1;ratioP1;P2;durP2;ratioP2
40162;SDS011;25881;47.462;19.304;2022-12-10T00:01:19;253.40;;;75.65;;
40162;SDS011;25881;47.462;19.304;2022-12-10T00:03:45;281.70;;;82.00;;
40162;SDS011;25881;47.462;19.304;2022-12-10T00:06:11;283.27;;;79.57;;
40162;SDS011;25881;47.462;19.304;2022-12-10T00:08:37;139.18;;;60.40;;
40162;SDS011;25881;47.462;19.304;2022-12-10T00:11:03;158.30;;;61.10;;
40162;SDS011;25881;47.462;19.304;2022-12-10T00:13:28;209.40;;;72.47;;
40162;SDS011;25881;47.462;19.304;2022-12-10T00:15:53;237.20;;;77.43;;
40162;SDS011;25881;47.462;19.304;2022-12-10T00:18:19;124.60;;;55.83;;
40162;SDS011;25881;47.462;19.304;2022-12-10T00:20:44;123.13;;;55.67;;
40162;SDS011;25881;47.462;19.304;2022-12-10T00:23:09;117.93;;;53.92;;
40162;SDS011;25881;47.462;19.304;2022-12-10T00:25:34;104.93;;;48.13;;
40162;SDS011;25881;47.462;19.304;2022-12-10T00:28:00;222.60;;;71.57;;
40162;SDS011;25881;47.462;19.304;2022-12-10T00:30:25;146.27;;;57.47;;
40162;SDS011;25881;47.462;19.304;2022-12-10T00:32:50;159.75;;;60.65;;
40162;SDS011;25881;47.462;19.304;2022-12-10T00:35:15;207.75;;;65.45;;
40162;SDS011;25881;47.462;19.304;2022-12-10T00:37:41;153.25;;;59.05;;
40162;SDS011;25881;47.462;19.304;2022-12-10T00:40:06;158.10;;;60.60;;
40162;SDS011;25881;47.462;19.304;2022-12-10T00:42:32;179.00;;;63.17;;
40162;SDS011;25881;47.462;19.304;2022-12-10T00:44:57;187.70;;;66.10;;
40162;SDS011;25881;47.462;19.304;2022-12-10T00:47:22;174.07;;;62.83;;
40162;SDS011;25881;47.462;19.304;2022-12-10T00:49:47;240.60;;;73.37;;
40162;SDS011;25881;47.462;19.304;2022-12-10T00:52:12;318.40;;;79.70;;
40162;SDS011;25881;47.462;19.304;2022-12-10T00:54:38;202.07;;;66.80;;
40162;SDS011;25881;47.462;19.304;2022-12-10T00:57:03;198.70;;;67.07;;
40162;SDS011;25881;47.462;19.304;2022-12-10T00:59:28;258.63;;;73.57;;
40162;SDS011;25881;47.462;19.304;2022-12-10T01:01:53;201.25;;;69.88;;
40162;SDS011;25881;47.462;19.304;2022-12-10T01:04:19;190.87;;;63.97;;
40162;SDS011;25881;47.462;19.304;2022-12-10T01:09:11;240.47;;;79.70;;
40162;SDS011;25881;47.462;19.304;2022-12-10T01:11:37;199.05;;;73.70;;
40162;SDS011;25881;47.462;19.304;2022-12-10T01:14:03;220.30;;;80.50;;
40162;SDS011;25881;47.462;19.304;2022-12-10T01:16:28;195.85;;;74.30;;
40162;SDS011;25881;47.462;19.304;2022-12-10T01:18:57;226.00;;;78.75;;
40162;SDS011;25881;47.462;19.304;2022-12-10T01:21:23;199.63;;;75.15;;
40162;SDS011;25881;47.462;19.304;2022-12-10T01:23:49;233.82;;;76.93;;
40162;SDS011;25881;47.462;19.304;2022-12-10T01:26:16;171.88;;;66.63;;
40162;SDS011;25881;47.462;19.304;2022-12-10T01:28:42;233.75;;;75.65;;
40162;SDS011;25881;47.462;19.304;2022-12-10T01:31:11;229.65;;;69.60;;
40162;SDS011;25881;47.462;19.304;2022-12-10T01:33:37;412.65;;;83.78;;
40162;SDS011;25881;47.462;19.304;2022-12-10T01:36:12;176.88;;;64.95;;
40162;SDS011;25881;47.462;19.304;2022-12-10T01:38:38;190.93;;;66.00;;
40162;SDS011;25881;47.462;19.304;2022-12-10T01:41:04;155.65;;;57.55;;
40162;SDS011;25881;47.462;19.304;2022-12-10T01:43:47;124.43;;;50.08;;
40162;SDS011;25881;47.462;19.304;2022-12-10T01:46:13;95.95;;;41.55;;
40162;SDS011;25881;47.462;19.304;2022-12-10T01:48:38;118.33;;;47.33;;
40162;SDS011;25881;47.462;19.304;2022-12-10T01:51:03;185.67;;;56.60;;
40162;SDS011;25881;47.462;19.304;2022-12-10T01:53:29;135.13;;;48.00;;
40162;SDS011;25881;47.462;19.304;2022-12-10T01:55:54;114.37;;;45.23;;
40162;SDS011;25881;47.462;19.304;2022-12-10T01:58:19;105.63;;;44.07;;
40162;SDS011;25881;47.462;19.304;2022-12-10T02:00:47;138.20;;;47.10;;
40162;SDS011;25881;47.462;19.304;2022-12-10T02:03:17;100.35;;;39.35;;
40162;SDS011;25881;47.462;19.304;2022-12-10T02:05:47;166.32;;;52.80;;
40162;SDS011;25881;47.462;19.304;2022-12-10T02:08:23;134.80;;;45.45;;
40162;SDS011;25881;47.462;19.304;2022-12-10T02:16:18;96.25;;;39.53;;
40162;SDS011;25881;47.462;19.304;2022-12-10T02:18:49;151.15;;;51.42;;
40162;SDS011;25881;47.462;19.304;2022-12-10T02:21:18;154.55;;;51.13;;
40162;SDS011;25881;47.462;19.304;2022-12-10T02:23:49;127.75;;;45.72;;
40162;SDS011;25881;47.462;19.304;2022-12-10T02:26:36;114.82;;;43.85;;
40162;SDS011;25881;47.462;19.304;2022-12-10T02:31:42;104.35;;;41.97;;
40162;SDS011;25881;47.462;19.304;2022-12-10T02:34:08;127.72;;;46.35;;
40162;SDS011;25881;47.462;19.304;2022-12-10T02:36:35;123.07;;;45.42;;
40162;SDS011;25881;47.462;19.304;2022-12-10T02:39:03;99.80;;;44.10;;
40162;SDS011;25881;47.462;19.304;2022-12-10T02:41:35;88.78;;;39.47;;
40162;SDS011;25881;47.462;19.304;2022-12-10T02:44:02;94.30;;;42.42;;
40162;SDS011;25881;47.462;19.304;2022-12-10T02:46:29;96.88;;;43.78;;
40162;SDS011;25881;47.462;19.304;2022-12-10T02:48:55;105.28;;;45.17;;
40162;SDS011;25881;47.462;19.304;2022-12-10T02:51:21;77.05;;;38.00;;
40162;SDS011;25881;47.462;19.304;2022-12-10T02:53:46;77.00;;;38.93;;
40162;SDS011;25881;47.462;19.304;2022-12-10T02:56:19;93.40;;;41.90;;
40162;SDS011;25881;47.462;19.304;2022-12-10T03:03:48;74.13;;;37.90;;
40162;SDS011;25881;47.462;19.304;2022-12-10T03:06:17;78.53;;;39.00;;
40162;SDS011;25881;47.462;19.304;2022-12-10T03:08:49;68.75;;;36.67;;
40162;SDS011;25881;47.462;19.304;2022-12-10T03:11:16;66.47;;;36.83;;
40162;SDS011;25881;47.462;19.304;2022-12-10T03:16:25;63.55;;;33.95;;
40162;SDS011;25881;47.462;19.304;2022-12-10T03:21:19;69.75;;;34.88;;
40162;SDS011;25881;47.462;19.304;2022-12-10T03:23:45;62.90;;;35.58;;
40162;SDS011;25881;47.462;19.304;2022-12-10T03:26:11;62.53;;;34.65;;
40162;SDS011;25881;47.462;19.304;2022-12-10T03:28:45;59.78;;;33.63;;
40162;SDS011;25881;47.462;19.304;2022-12-10T03:31:11;86.07;;;39.05;;
40162;SDS011;25881;47.462;19.304;2022-12-10T03:33:37;70.75;;;36.03;;
40162;SDS011;25881;47.462;19.304;2022-12-10T03:36:03;65.97;;;35.15;;
40162;SDS011;25881;47.462;19.304;2022-12-10T03:38:28;64.45;;;34.35;;
40162;SDS011;25881;47.462;19.304;2022-12-10T03:40:54;64.10;;;35.42;;
40162;SDS011;25881;47.462;19.304;2022-12-10T03:43:20;66.07;;;34.90;;
40162;SDS011;25881;47.462;19.304;2022-12-10T03:45:45;72.38;;;34.50;;
40162;SDS011;25881;47.462;19.304;2022-12-10T03:48:11;71.83;;;34.77;;
40162;SDS011;25881;47.462;19.304;2022-12-10T03:50:36;56.07;;;31.70;;
40162;SDS011;25881;47.462;19.304;2022-12-10T03:53:01;57.53;;;31.20;;
40162;SDS011;25881;47.462;19.304;2022-12-10T03:55:26;51.20;;;29.33;;
40162;SDS011;25881;47.462;19.304;2022-12-10T03:57:52;53.93;;;29.73;;
40162;SDS011;25881;47.462;19.304;2022-12-10T04:00:17;56.67;;;29.95;;
40162;SDS011;25881;47.462;19.304;2022-12-10T04:02:42;50.60;;;27.40;;
40162;SDS011;25881;47.462;19.304;2022-12-10T04:05:08;42.73;;;24.63;;
40162;SDS011;25881;47.462;19.304;2022-12-10T04:07:33;44.70;;;24.65;;
40162;SDS011;25881;47.462;19.304;2022-12-10T04:09:59;41.40;;;23.55;;
40162;SDS011;25881;47.462;19.304;2022-12-10T04:12:24;59.70;;;26.67;;
40162;SDS011;25881;47.462;19.304;2022-12-10T04:14:49;62.77;;;27.30;;
40162;SDS011;25881;47.462;19.304;2022-12-10T04:17:33;73.63;;;30.08;;
40162;SDS011;25881;47.462;19.304;2022-12-10T04:19:58;68.00;;;28.15;;
40162;SDS011;25881;47.462;19.304;2022-12-10T04:22:24;77.75;;;29.52;;
40162;SDS011;25881;47.462;19.304;2022-12-10T04:25:09;85.07;;;29.38;;
40162;SDS011;25881;47.462;19.304;2022-12-10T04:27:54;84.32;;;31.02;;
40162;SDS011;25881;47.462;19.304;2022-12-10T04:30:19;93.27;;;33.13;;
40162;SDS011;25881;47.462;19.304;2022-12-10T04:32:44;97.22;;;31.80;;
40162;SDS011;25881;47.462;19.304;2022-12-10T04:35:10;97.53;;;33.28;;
40162;SDS011;25881;47.462;19.304;2022-12-10T04:37:35;100.32;;;33.28;;
40162;SDS011;25881;47.462;19.304;2022-12-10T04:40:00;112.45;;;35.10;;
40162;SDS011;25881;47.462;19.304;2022-12-10T04:42:25;110.15;;;32.65;;
40162;SDS011;25881;47.462;19.304;2022-12-10T04:44:51;86.83;;;30.73;;
40162;SDS011;25881;47.462;19.304;2022-12-10T04:47:16;102.80;;;31.57;;
40162;SDS011;25881;47.462;19.304;2022-12-10T04:49:41;117.60;;;32.92;;
40162;SDS011;25881;47.462;19.304;2022-12-10T04:52:07;86.90;;;29.38;;
40162;SDS011;25881;47.462;19.304;2022-12-10T04:54:33;70.95;;;26.45;;
40162;SDS011;25881;47.462;19.304;2022-12-10T04:56:58;107.82;;;32.38;;
40162;SDS011;25881;47.462;19.304;2022-12-10T04:59:23;81.00;;;28.17;;
40162;SDS011;25881;47.462;19.304;2022-12-10T05:01:49;94.93;;;28.75;;
40162;SDS011;25881;47.462;19.304;2022-12-10T05:04:15;96.90;;;31.08;;
40162;SDS011;25881;47.462;19.304;2022-12-10T05:06:41;87.45;;;29.75;;
40162;SDS011;25881;47.462;19.304;2022-12-10T05:09:06;77.53;;;27.52;;
40162;SDS011;25881;47.462;19.304;2022-12-10T05:11:32;74.78;;;28.10;;
40162;SDS011;25881;47.462;19.304;2022-12-10T05:13:58;120.35;;;32.03;;
40162;SDS011;25881;47.462;19.304;2022-12-10T05:16:24;122.60;;;34.20;;
40162;SDS011;25881;47.462;19.304;2022-12-10T05:18:49;137.23;;;35.22;;
40162;SDS011;25881;47.462;19.304;2022-12-10T05:21:15;100.87;;;30.67;;
40162;SDS011;25881;47.462;19.304;2022-12-10T05:23:42;93.88;;;31.70;;
40162;SDS011;25881;47.462;19.304;2022-12-10T05:26:08;104.95;;;31.15;;
40162;SDS011;25881;47.462;19.304;2022-12-10T05:28:38;91.38;;;31.25;;
40162;SDS011;25881;47.462;19.304;2022-12-10T05:31:03;92.93;;;31.80;;
40162;SDS011;25881;47.462;19.304;2022-12-10T05:33:29;92.10;;;31.17;;
40162;SDS011;25881;47.462;19.304;2022-12-10T05:35:55;76.22;;;28.08;;
40162;SDS011;25881;47.462;19.304;2022-12-10T05:38:20;97.78;;;31.88;;
40162;SDS011;25881;47.462;19.304;2022-12-10T05:40:46;90.00;;;30.70;;
40162;SDS011;25881;47.462;19.304;2022-12-10T05:43:11;85.83;;;30.27;;
40162;SDS011;25881;47.462;19.304;2022-12-10T05:45:36;94.78;;;29.85;;
40162;SDS011;25881;47.462;19.304;2022-12-10T05:48:01;70.90;;;28.30;;
40162;SDS011;25881;47.462;19.304;2022-12-10T05:50:27;79.27;;;30.00;;
40162;SDS011;25881;47.462;19.304;2022-12-10T05:52:52;69.00;;;30.10;;
40162;SDS011;25881;47.462;19.304;2022-12-10T05:55:17;88.55;;;32.03;;
40162;SDS011;25881;47.462;19.304;2022-12-10T05:57:42;104.82;;;33.20;;
40162;SDS011;25881;47.462;19.304;2022-12-10T06:00:08;90.33;;;32.53;;
40162;SDS011;25881;47.462;19.304;2022-12-10T06:02:33;89.25;;;33.15;;
40162;SDS011;25881;47.462;19.304;2022-12-10T06:04:58;95.00;;;32.67;;
40162;SDS011;25881;47.462;19.304;2022-12-10T06:07:24;120.97;;;36.07;;
40162;SDS011;25881;47.462;19.304;2022-12-10T06:09:49;132.52;;;37.72;;
40162;SDS011;25881;47.462;19.304;2022-12-10T06:12:15;103.32;;;36.78;;
40162;SDS011;25881;47.462;19.304;2022-12-10T06:14:40;115.47;;;36.25;;
40162;SDS011;25881;47.462;19.304;2022-12-10T06:17:05;123.13;;;37.10;;
40162;SDS011;25881;47.462;19.304;2022-12-10T06:19:30;96.47;;;34.50;;
40162;SDS011;25881;47.462;19.304;2022-12-10T06:21:55;110.73;;;35.03;;
40162;SDS011;25881;47.462;19.304;2022-12-10T06:24:21;89.22;;;34.50;;
40162;SDS011;25881;47.462;19.304;2022-12-10T06:26:46;84.33;;;33.93;;
40162;SDS011;25881;47.462;19.304;2022-12-10T06:29:11;100.10;;;35.83;;
40162;SDS011;25881;47.462;19.304;2022-12-10T06:31:36;75.37;;;32.90;;
40162;SDS011;25881;47.462;19.304;2022-12-10T06:34:02;93.18;;;36.58;;
40162;SDS011;25881;47.462;19.304;2022-12-10T06:36:27;110.63;;;39.57;;
40162;SDS011;25881;47.462;19.304;2022-12-10T06:38:52;108.73;;;40.10;;
40162;SDS011;25881;47.462;19.304;2022-12-10T06:41:18;147.15;;;43.40;;
40162;SDS011;25881;47.462;19.304;2022-12-10T06:43:45;114.63;;;42.15;;
40162;SDS011;25881;47.462;19.304;2022-12-10T06:46:11;152.77;;;45.83;;
40162;SDS011;25881;47.462;19.304;2022-12-10T06:48:37;115.40;;;41.30;;
40162;SDS011;25881;47.462;19.304;2022-12-10T06:51:02;83.90;;;37.23;;
40162;SDS011;25881;47.462;19.304;2022-12-10T06:53:28;90.93;;;36.55;;
40162;SDS011;25881;47.462;19.304;2022-12-10T06:55:53;106.57;;;37.67;;
40162;SDS011;25881;47.462;19.304;2022-12-10T06:58:18;92.63;;;34.50;;
40162;SDS011;25881;47.462;19.304;2022-12-10T07:00:44;91.57;;;35.67;;
40162;SDS011;25881;47.462;19.304;2022-12-10T07:03:09;74.63;;;33.33;;
40162;SDS011;25881;47.462;19.304;2022-12-10T07:05:34;86.80;;;35.90;;
40162;SDS011;25881;47.462;19.304;2022-12-10T07:07:59;102.70;;;38.30;;
40162;SDS011;25881;47.462;19.304;2022-12-10T07:10:24;104.87;;;38.07;;
40162;SDS011;25881;47.462;19.304;2022-12-10T07:12:50;90.57;;;37.47;;
40162;SDS011;25881;47.462;19.304;2022-12-10T07:15:15;118.97;;;38.78;;
40162;SDS011;25881;47.462;19.304;2022-12-10T07:17:40;106.03;;;39.67;;
40162;SDS011;25881;47.462;19.304;2022-12-10T07:20:05;72.07;;;34.72;;
40162;SDS011;25881;47.462;19.304;2022-12-10T07:22:31;87.18;;;35.35;;
40162;SDS011;25881;47.462;19.304;2022-12-10T07:24:56;86.93;;;36.03;;
40162;SDS011;25881;47.462;19.304;2022-12-10T07:27:21;81.07;;;36.90;;
40162;SDS011;25881;47.462;19.304;2022-12-10T07:29:47;95.55;;;35.80;;
40162;SDS011;25881;47.462;19.304;2022-12-10T07:32:12;79.67;;;35.23;;
40162;SDS011;25881;47.462;19.304;2022-12-10T07:34:37;98.22;;;36.78;;
40162;SDS011;25881;47.462;19.304;2022-12-10T07:37:02;78.30;;;36.20;;
40162;SDS011;25881;47.462;19.304;2022-12-10T07:39:28;75.77;;;36.60;;
40162;SDS011;25881;47.462;19.304;2022-12-10T07:41:53;82.13;;;36.50;;
40162;SDS011;25881;47.462;19.304;2022-12-10T07:44:19;94.70;;;39.53;;
40162;SDS011;25881;47.462;19.304;2022-12-10T07:46:46;92.95;;;38.28;;
40162;SDS011;25881;47.462;19.304;2022-12-10T07:49:11;80.65;;;38.00;;
40162;SDS011;25881;47.462;19.304;2022-12-10T07:51:37;82.40;;;38.40;;
40162;SDS011;25881;47.462;19.304;2022-12-10T07:54:02;77.37;;;35.93;;
40162;SDS011;25881;47.462;19.304;2022-12-10T07:56:27;76.82;;;36.97;;
40162;SDS011;25881;47.462;19.304;2022-12-10T07:58:52;66.03;;;32.90;;
40162;SDS011;25881;47.462;19.304;2022-12-10T08:01:19;65.95;;;34.97;;
40162;SDS011;25881;47.462;19.304;2022-12-10T08:03:47;67.10;;;35.42;;
40162;SDS011;25881;47.462;19.304;2022-12-10T08:06:14;78.70;;;36.50;;
40162;SDS011;25881;47.462;19.304;2022-12-10T08:08:40;82.90;;;37.35;;
40162;SDS011;25881;47.462;19.304;2022-12-10T08:11:05;81.28;;;37.55;;
40162;SDS011;25881;47.462;19.304;2022-12-10T08:13:31;82.07;;;39.55;;
40162;SDS011;25881;47.462;19.304;2022-12-10T08:16:03;69.60;;;35.33;;
40162;SDS011;25881;47.462;19.304;2022-12-10T08:18:29;75.05;;;35.28;;
40162;SDS011;25881;47.462;19.304;2022-12-10T08:20:55;67.57;;;34.47;;
40162;SDS011;25881;47.462;19.304;2022-12-10T08:23:20;74.20;;;35.70;;
40162;SDS011;25881;47.462;19.304;2022-12-10T08:25:45;82.23;;;37.97;;
40162;SDS011;25881;47.462;19.304;2022-12-10T08:28:10;76.27;;;37.87;;
40162;SDS011;25881;47.462;19.304;2022-12-10T08:30:35;77.40;;;37.67;;
40162;SDS011;25881;47.462;19.304;2022-12-10T08:33:01;91.03;;;40.27;;
40162;SDS011;25881;47.462;19.304;2022-12-10T08:35:26;72.53;;;37.83;;
40162;SDS011;25881;47.462;19.304;2022-12-10T08:37:51;93.60;;;42.47;;
40162;SDS011;25881;47.462;19.304;2022-12-10T08:40:16;72.77;;;37.30;;
40162;SDS011;25881;47.462;19.304;2022-12-10T08:42:42;79.83;;;38.70;;
40162;SDS011;25881;47.462;19.304;2022-12-10T08:45:07;71.03;;;38.22;;
40162;SDS011;25881;47.462;19.304;2022-12-10T08:47:33;71.82;;;37.95;;
40162;SDS011;25881;47.462;19.304;2022-12-10T08:49:58;87.63;;;40.97;;
40162;SDS011;25881;47.462;19.304;2022-12-10T08:52:23;77.13;;;41.72;;
40162;SDS011;25881;47.462;19.304;2022-12-10T08:54:48;80.72;;;41.90;;
40162;SDS011;25881;47.462;19.304;2022-12-10T08:57:14;81.53;;;41.47;;
40162;SDS011;25881;47.462;19.304;2022-12-10T08:59:39;78.82;;;39.40;;
40162;SDS011;25881;47.462;19.304;2022-12-10T09:02:04;84.33;;;40.63;;
40162;SDS011;25881;47.462;19.304;2022-12-10T09:04:30;81.20;;;40.20;;
40162;SDS011;25881;47.462;19.304;2022-12-10T09:06:55;70.95;;;37.38;;
40162;SDS011;25881;47.462;19.304;2022-12-10T09:09:20;79.80;;;39.27;;
40162;SDS011;25881;47.462;19.304;2022-12-10T09:11:45;83.80;;;38.03;;
40162;SDS011;25881;47.462;19.304;2022-12-10T09:14:11;78.75;;;38.33;;
40162;SDS011;25881;47.462;19.304;2022-12-10T09:16:37;90.03;;;43.78;;
40162;SDS011;25881;47.462;19.304;2022-12-10T09:19:04;70.70;;;37.60;;
40162;SDS011;25881;47.462;19.304;2022-12-10T09:21:29;80.07;;;40.30;;
40162;SDS011;25881;47.462;19.304;2022-12-10T09:23:55;81.10;;;41.13;;
40162;SDS011;25881;47.462;19.304;2022-12-10T09:26:21;122.07;;;65.97;;
40162;SDS011;25881;47.462;19.304;2022-12-10T09:28:46;104.17;;;58.00;;
40162;SDS011;25881;47.462;19.304;2022-12-10T09:31:12;105.78;;;56.92;;
40162;SDS011;25881;47.462;19.304;2022-12-10T09:33:37;77.30;;;42.65;;
40162;SDS011;25881;47.462;19.304;2022-12-10T09:36:06;84.43;;;45.27;;
40162;SDS011;25881;47.462;19.304;2022-12-10T09:38:35;83.25;;;40.60;;
40162;SDS011;25881;47.462;19.304;2022-12-10T09:41:02;68.97;;;37.70;;
40162;SDS011;25881;47.462;19.304;2022-12-10T09:48:32;81.93;;;41.70;;
40162;SDS011;25881;47.462;19.304;2022-12-10T09:53:25;74.67;;;40.20;;
40162;SDS011;25881;47.462;19.304;2022-12-10T09:55:51;80.30;;;43.33;;
40162;SDS011;25881;47.462;19.304;2022-12-10T09:58:18;77.32;;;44.35;;
40162;SDS011;25881;47.462;19.304;2022-12-10T10:00:44;72.20;;;38.50;;
40162;SDS011;25881;47.462;19.304;2022-12-10T10:03:14;67.93;;;37.80;;
40162;SDS011;25881;47.462;19.304;2022-12-10T10:05:41;70.97;;;37.15;;
40162;SDS011;25881;47.462;19.304;2022-12-10T10:08:12;66.57;;;38.55;;
40162;SDS011;25881;47.462;19.304;2022-12-10T10:10:38;76.00;;;39.58;;
40162;SDS011;25881;47.462;19.304;2022-12-10T10:15:34;77.03;;;41.70;;
40162;SDS011;25881;47.462;19.304;2022-12-10T10:18:34;75.10;;;40.70;;
40162;SDS011;25881;47.462;19.304;2022-12-10T10:20:51;73.18;;;39.33;;
40162;SDS011;25881;47.462;19.304;2022-12-10T10:23:16;80.28;;;42.25;;
40162;SDS011;25881;47.462;19.304;2022-12-10T10:25:42;71.43;;;41.23;;
40162;SDS011;25881;47.462;19.304;2022-12-10T10:28:11;71.82;;;40.95;;
40162;SDS011;25881;47.462;19.304;2022-12-10T10:30:37;71.20;;;38.80;;
40162;SDS011;25881;47.462;19.304;2022-12-10T10:33:08;72.53;;;39.33;;
40162;SDS011;25881;47.462;19.304;2022-12-10T10:35:34;79.63;;;41.03;;
40162;SDS011;25881;47.462;19.304;2022-12-10T10:38:07;82.63;;;42.53;;
40162;SDS011;25881;47.462;19.304;2022-12-10T10:42:58;67.07;;;39.45;;
40162;SDS011;25881;47.462;19.304;2022-12-10T10:50:40;59.75;;;33.03;;
40162;SDS011;25881;47.462;19.304;2022-12-10T10:55:50;42.80;;;25.38;;
40162;SDS011;25881;47.462;19.304;2022-12-10T10:58:19;41.45;;;25.52;;
40162;SDS011;25881;47.462;19.304;2022-12-10T11:00:52;38.65;;;24.88;;
40162;SDS011;25881;47.462;19.304;2022-12-10T11:03:18;37.88;;;23.40;;
40162;SDS011;25881;47.462;19.304;2022-12-10T11:05:43;33.47;;;21.60;;
40162;SDS011;25881;47.462;19.304;2022-12-10T11:08:18;42.92;;;26.15;;
40162;SDS011;25881;47.462;19.304;2022-12-10T11:10:51;50.47;;;30.65;;
40162;SDS011;25881;47.462;19.304;2022-12-10T11:13:26;60.63;;;34.60;;
40162;SDS011;25881;47.462;19.304;2022-12-10T11:18:37;57.15;;;33.10;;
40162;SDS011;25881;47.462;19.304;2022-12-10T11:23:29;59.77;;;35.93;;
40162;SDS011;25881;47.462;19.304;2022-12-10T11:25:57;69.15;;;39.60;;
40162;SDS011;25881;47.462;19.304;2022-12-10T11:44:09;80.07;;;44.17;;
40162;SDS011;25881;47.462;19.304;2022-12-10T11:56:40;73.80;;;39.67;;
40162;SDS011;25881;47.462;19.304;2022-12-10T12:14:29;53.85;;;25.50;;
40162;SDS011;25881;47.462;19.304;2022-12-10T12:17:03;48.08;;;24.77;;
40162;SDS011;25881;47.462;19.304;2022-12-10T12:19:40;45.83;;;23.33;;
40162;SDS011;25881;47.462;19.304;2022-12-10T12:22:42;70.10;;;34.40;;
40162;SDS011;25881;47.462;19.304;2022-12-10T12:25:05;74.88;;;39.65;;
40162;SDS011;25881;47.462;19.304;2022-12-10T12:27:42;60.08;;;29.48;;
40162;SDS011;25881;47.462;19.304;2022-12-10T12:35:20;55.38;;;26.42;;
40162;SDS011;25881;47.462;19.304;2022-12-10T12:37:49;53.05;;;26.48;;
40162;SDS011;25881;47.462;19.304;2022-12-10T12:40:20;59.08;;;26.83;;
40162;SDS011;25881;47.462;19.304;2022-12-10T12:43:04;68.28;;;30.17;;
40162;SDS011;25881;47.462;19.304;2022-12-10T12:45:45;66.97;;;28.73;;
40162;SDS011;25881;47.462;19.304;2022-12-10T12:50:46;65.07;;;30.17;;
40162;SDS011;25881;47.462;19.304;2022-12-10T12:53:13;89.93;;;32.88;;
40162;SDS011;25881;47.462;19.304;2022-12-10T13:00:29;73.37;;;29.10;;
40162;SDS011;25881;47.462;19.304;2022-12-10T13:05:33;84.35;;;31.55;;
40162;SDS011;25881;47.462;19.304;2022-12-10T13:10:44;78.55;;;32.13;;
40162;SDS011;25881;47.462;19.304;2022-12-10T13:15:41;87.45;;;35.03;;
40162;SDS011;25881;47.462;19.304;2022-12-10T13:23:01;72.13;;;32.90;;
40162;SDS011;25881;47.462;19.304;2022-12-10T13:25:40;77.90;;;34.47;;
40162;SDS011;25881;47.462;19.304;2022-12-10T13:36:33;85.60;;;36.03;;
40162;SDS011;25881;47.462;19.304;2022-12-10T13:41:28;99.93;;;45.80;;
40162;SDS011;25881;47.462;19.304;2022-12-10T13:44:24;78.80;;;33.88;;
40162;SDS011;25881;47.462;19.304;2022-12-10T13:46:55;93.75;;;36.38;;
40162;SDS011;25881;47.462;19.304;2022-12-10T13:49:22;78.97;;;32.75;;
40162;SDS011;25881;47.462;19.304;2022-12-10T13:51:57;76.20;;;33.55;;
40162;SDS011;25881;47.462;19.304;2022-12-10T14:07:30;85.15;;;37.15;;
40162;SDS011;25881;47.462;19.304;2022-12-10T14:09:56;83.88;;;36.35;;
40162;SDS011;25881;47.462;19.304;2022-12-10T14:12:39;93.15;;;37.70;;
40162;SDS011;25881;47.462;19.304;2022-12-10T14:15:08;89.18;;;38.67;;
40162;SDS011;25881;47.462;19.304;2022-12-10T14:17:37;95.00;;;39.40;;
40162;SDS011;25881;47.462;19.304;2022-12-10T14:20:04;111.45;;;40.53;;
40162;SDS011;25881;47.462;19.304;2022-12-10T14:22:50;89.38;;;38.28;;
40162;SDS011;25881;47.462;19.304;2022-12-10T14:25:17;92.00;;;40.03;;
40162;SDS011;25881;47.462;19.304;2022-12-10T14:27:43;95.80;;;39.92;;
40162;SDS011;25881;47.462;19.304;2022-12-10T14:30:15;91.00;;;40.85;;
40162;SDS011;25881;47.462;19.304;2022-12-10T14:32:41;78.35;;;39.40;;
40162;SDS011;25881;47.462;19.304;2022-12-10T14:35:07;90.55;;;40.83;;
40162;SDS011;25881;47.462;19.304;2022-12-10T14:37:36;85.22;;;39.17;;
40162;SDS011;25881;47.462;19.304;2022-12-10T14:40:05;79.90;;;37.92;;
40162;SDS011;25881;47.462;19.304;2022-12-10T14:42:30;86.95;;;39.78;;
40162;SDS011;25881;47.462;19.304;2022-12-10T14:44:57;96.57;;;40.38;;
40162;SDS011;25881;47.462;19.304;2022-12-10T14:47:23;83.53;;;41.42;;
40162;SDS011;25881;47.462;19.304;2022-12-10T14:49:49;92.45;;;40.05;;
40162;SDS011;25881;47.462;19.304;2022-12-10T14:52:17;82.25;;;38.30;;
40162;SDS011;25881;47.462;19.304;2022-12-10T14:54:43;74.80;;;34.53;;
40162;SDS011;25881;47.462;19.304;2022-12-10T14:57:11;79.00;;;35.75;;
40162;SDS011;25881;47.462;19.304;2022-12-10T14:59:43;77.07;;;35.83;;
40162;SDS011;25881;47.462;19.304;2022-12-10T15:02:29;73.95;;;34.88;;
40162;SDS011;25881;47.462;19.304;2022-12-10T15:04:55;64.20;;;33.03;;
40162;SDS011;25881;47.462;19.304;2022-12-10T15:07:22;78.07;;;35.97;;
40162;SDS011;25881;47.462;19.304;2022-12-10T15:09:48;71.30;;;36.92;;
40162;SDS011;25881;47.462;19.304;2022-12-10T15:14:45;79.68;;;35.83;;
40162;SDS011;25881;47.462;19.304;2022-12-10T15:19:56;88.03;;;37.60;;
40162;SDS011;25881;47.462;19.304;2022-12-10T15:22:24;85.80;;;37.93;;
40162;SDS011;25881;47.462;19.304;2022-12-10T15:24:51;70.60;;;35.13;;
40162;SDS011;25881;47.462;19.304;2022-12-10T15:27:21;88.88;;;39.53;;
40162;SDS011;25881;47.462;19.304;2022-12-10T15:29:46;74.70;;;36.10;;
40162;SDS011;25881;47.462;19.304;2022-12-10T15:32:13;74.03;;;35.28;;
40162;SDS011;25881;47.462;19.304;2022-12-10T15:34:46;81.47;;;39.10;;
40162;SDS011;25881;47.462;19.304;2022-12-10T15:37:19;81.35;;;37.97;;
40162;SDS011;25881;47.462;19.304;2022-12-10T15:39:46;79.47;;;38.10;;
40162;SDS011;25881;47.462;19.304;2022-12-10T15:42:27;78.10;;;38.92;;
40162;SDS011;25881;47.462;19.304;2022-12-10T15:44:54;96.50;;;46.00;;
40162;SDS011;25881;47.462;19.304;2022-12-10T15:47:25;91.38;;;40.03;;
40162;SDS011;25881;47.462;19.304;2022-12-10T15:49:52;103.55;;;42.90;;
40162;SDS011;25881;47.462;19.304;2022-12-10T15:54:44;89.05;;;40.80;;
40162;SDS011;25881;47.462;19.304;2022-12-10T15:59:38;90.82;;;39.90;;
40162;SDS011;25881;47.462;19.304;2022-12-10T16:02:06;95.15;;;41.10;;
40162;SDS011;25881;47.462;19.304;2022-12-10T16:04:36;109.50;;;45.35;;
40162;SDS011;25881;47.462;19.304;2022-12-10T16:07:02;102.68;;;44.15;;
40162;SDS011;25881;47.462;19.304;2022-12-10T16:09:27;85.22;;;39.30;;
40162;SDS011;25881;47.462;19.304;2022-12-10T16:11:52;81.57;;;38.28;;
40162;SDS011;25881;47.462;19.304;2022-12-10T16:14:18;78.80;;;37.45;;
40162;SDS011;25881;47.462;19.304;2022-12-10T16:16:43;99.38;;;42.95;;
40162;SDS011;25881;47.462;19.304;2022-12-10T16:19:10;95.85;;;43.03;;
40162;SDS011;25881;47.462;19.304;2022-12-10T16:21:36;85.17;;;41.17;;
40162;SDS011;25881;47.462;19.304;2022-12-10T16:24:02;89.45;;;40.67;;
40162;SDS011;25881;47.462;19.304;2022-12-10T16:26:27;80.95;;;37.83;;
40162;SDS011;25881;47.462;19.304;2022-12-10T16:28:53;79.72;;;39.65;;
40162;SDS011;25881;47.462;19.304;2022-12-10T16:31:21;86.10;;;39.50;;
40162;SDS011;25881;47.462;19.304;2022-12-10T16:33:47;86.90;;;39.83;;